sensor_id;sensor_type;location;lat;lon;timestamp;temperature;humidity
26278;DHT22;14000;52.056;8.510;2023-05-18T00:00:28;5.50;99.90
26278;DHT22;14000;52.056;8.510;2023-05-18T00:02:53;5.50;99.90
26278;DHT22;14000;52.056;8.510;2023-05-18T00:05:19;5.40;99.90
26278;DHT22;14000;52.056;8.510;2023-05-18T00:07:45;5.40;99.90
26278;DHT22;14000;52.056;8.510;2023-05-18T00:10:11;5.30;99.90
26278;DHT22;14000;52.056;8.510;2023-05-18T00:12:37;5.30;99.90
26278;DHT22;14000;52.056;8.510;2023-05-18T00:15:03;5.20;99.90
26278;DHT22;14000;52.056;8.510;2023-05-18T00:17:29;5.20;99.90
26278;DHT22;14000;52.056;8.510;2023-05-18T00:19:56;5.20;99.90
26278;DHT22;14000;52.056;8.510;2023-05-18T00:22:23;5.20;99.90
26278;DHT22;14000;52.056;8.510;2023-05-18T00:24:50;5.10;99.90
26278;DHT22;14000;52.056;8.510;2023-05-18T00:27:16;5.10;99.90
26278;DHT22;14000;52.056;8.510;2023-05-18T00:29:42;5.20;99.90
26278;DHT22;14000;52.056;8.510;2023-05-18T00:32:07;5.10;99.90
26278;DHT22;14000;52.056;8.510;2023-05-18T00:34:33;5.10;99.90
26278;DHT22;14000;52.056;8.510;2023-05-18T00:36:58;5.10;99.90
26278;DHT22;14000;52.056;8.510;2023-05-18T00:39:24;5.10;99.90
26278;DHT22;14000;52.056;8.510;2023-05-18T00:41:49;5.10;99.90
26278;DHT22;14000;52.056;8.510;2023-05-18T00:44:15;5.10;99.90
26278;DHT22;14000;52.056;8.510;2023-05-18T00:46:41;5.00;99.90
26278;DHT22;14000;52.056;8.510;2023-05-18T00:49:09;5.00;99.90
26278;DHT22;14000;52.056;8.510;2023-05-18T00:51:35;4.90;99.90
26278;DHT22;14000;52.056;8.510;2023-05-18T00:54:01;4.90;99.90
26278;DHT22;14000;52.056;8.510;2023-05-18T00:56:28;4.90;99.90
26278;DHT22;14000;52.056;8.510;2023-05-18T00:58:55;4.90;99.90
26278;DHT22;14000;52.056;8.510;2023-05-18T01:01:32;4.80;99.90
26278;DHT22;14000;52.056;8.510;2023-05-18T01:04:07;4.80;99.90
26278;DHT22;14000;52.056;8.510;2023-05-18T01:06:34;4.80;99.90
26278;DHT22;14000;52.056;8.510;2023-05-18T01:09:01;4.70;99.90
26278;DHT22;14000;52.056;8.510;2023-05-18T01:12:02;4.70;99.90
26278;DHT22;14000;52.056;8.510;2023-05-18T01:14:34;4.60;99.90
26278;DHT22;14000;52.056;8.510;2023-05-18T01:17:05;4.60;99.90
26278;DHT22;14000;52.056;8.510;2023-05-18T01:22:47;4.50;99.90
26278;DHT22;14000;52.056;8.510;2023-05-18T01:27:42;4.50;99.90
26278;DHT22;14000;52.056;8.510;2023-05-18T01:30:15;4.50;99.90
26278;DHT22;14000;52.056;8.510;2023-05-18T01:32:44;4.40;99.90
26278;DHT22;14000;52.056;8.510;2023-05-18T01:35:10;4.40;99.90
26278;DHT22;14000;52.056;8.510;2023-05-18T01:37:36;4.40;99.90
26278;DHT22;14000;52.056;8.510;2023-05-18T01:40:03;4.40;99.90
26278;DHT22;14000;52.056;8.510;2023-05-18T01:42:33;4.40;99.90
26278;DHT22;14000;52.056;8.510;2023-05-18T01:45:08;4.30;99.90
26278;DHT22;14000;52.056;8.510;2023-05-18T01:47:40;4.30;99.90
26278;DHT22;14000;52.056;8.510;2023-05-18T01:50:17;4.30;99.90
26278;DHT22;14000;52.056;8.510;2023-05-18T01:55:18;4.30;99.90
26278;DHT22;14000;52.056;8.510;2023-05-18T01:57:47;4.20;99.90
26278;DHT22;14000;52.056;8.510;2023-05-18T02:00:15;4.20;99.90
26278;DHT22;14000;52.056;8.510;2023-05-18T02:02:42;4.20;99.90
26278;DHT22;14000;52.056;8.510;2023-05-18T02:05:08;4.20;99.90
26278;DHT22;14000;52.056;8.510;2023-05-18T02:07:37;4.20;99.90
26278;DHT22;14000;52.056;8.510;2023-05-18T02:10:04;4.20;99.90
26278;DHT22;14000;52.056;8.510;2023-05-18T02:12:30;4.10;99.90
26278;DHT22;14000;52.056;8.510;2023-05-18T02:14:55;4.10;99.90
26278;DHT22;14000;52.056;8.510;2023-05-18T02:17:22;4.00;99.90
26278;DHT22;14000;52.056;8.510;2023-05-18T02:19:50;4.00;99.90
26278;DHT22;14000;52.056;8.510;2023-05-18T02:22:16;4.00;99.90
26278;DHT22;14000;52.056;8.510;2023-05-18T02:24:41;4.00;99.90
26278;DHT22;14000;52.056;8.510;2023-05-18T02:27:07;3.90;99.90
26278;DHT22;14000;52.056;8.510;2023-05-18T02:29:33;3.90;99.90
26278;DHT22;14000;52.056;8.510;2023-05-18T02:31:58;3.90;99.90
26278;DHT22;14000;52.056;8.510;2023-05-18T02:34:24;3.90;99.90
26278;DHT22;14000;52.056;8.510;2023-05-18T02:36:49;3.80;99.90
26278;DHT22;14000;52.056;8.510;2023-05-18T02:39:15;3.90;99.90
26278;DHT22;14000;52.056;8.510;2023-05-18T02:41:41;3.80;99.90
26278;DHT22;14000;52.056;8.510;2023-05-18T02:44:07;3.80;99.90
26278;DHT22;14000;52.056;8.510;2023-05-18T02:46:32;3.80;99.90
26278;DHT22;14000;52.056;8.510;2023-05-18T02:48:58;3.80;99.90
26278;DHT22;14000;52.056;8.510;2023-05-18T02:51:24;3.70;99.90
26278;DHT22;14000;52.056;8.510;2023-05-18T02:53:50;3.70;99.90
26278;DHT22;14000;52.056;8.510;2023-05-18T02:56:16;3.70;99.90
26278;DHT22;14000;52.056;8.510;2023-05-18T02:58:43;3.70;99.90
26278;DHT22;14000;52.056;8.510;2023-05-18T03:01:09;3.60;99.90
26278;DHT22;14000;52.056;8.510;2023-05-18T03:03:37;3.60;99.90
26278;DHT22;14000;52.056;8.510;2023-05-18T03:06:04;3.50;99.90
26278;DHT22;14000;52.056;8.510;2023-05-18T03:08:30;3.50;99.90
26278;DHT22;14000;52.056;8.510;2023-05-18T03:10:59;3.50;99.90
26278;DHT22;14000;52.056;8.510;2023-05-18T03:13:25;3.50;99.90
26278;DHT22;14000;52.056;8.510;2023-05-18T03:15:50;3.50;99.90
26278;DHT22;14000;52.056;8.510;2023-05-18T03:18:17;3.50;99.90
26278;DHT22;14000;52.056;8.510;2023-05-18T03:20:43;3.40;99.90
26278;DHT22;14000;52.056;8.510;2023-05-18T03:23:09;3.40;99.90
26278;DHT22;14000;52.056;8.510;2023-05-18T03:25:35;3.40;99.90
26278;DHT22;14000;52.056;8.510;2023-05-18T03:28:04;3.40;99.90
26278;DHT22;14000;52.056;8.510;2023-05-18T03:30:33;3.40;99.90
26278;DHT22;14000;52.056;8.510;2023-05-18T03:33:02;3.40;99.90
26278;DHT22;14000;52.056;8.510;2023-05-18T03:35:29;3.40;99.90
26278;DHT22;14000;52.056;8.510;2023-05-18T03:37:54;3.40;99.90
26278;DHT22;14000;52.056;8.510;2023-05-18T03:40:20;3.40;99.90
26278;DHT22;14000;52.056;8.510;2023-05-18T03:42:46;3.40;99.90
26278;DHT22;14000;52.056;8.510;2023-05-18T03:45:12;3.40;99.90
26278;DHT22;14000;52.056;8.510;2023-05-18T03:47:38;3.40;99.90
26278;DHT22;14000;52.056;8.510;2023-05-18T03:50:05;3.40;99.90
26278;DHT22;14000;52.056;8.510;2023-05-18T03:52:32;3.40;99.90
26278;DHT22;14000;52.056;8.510;2023-05-18T03:54:59;3.40;99.90
26278;DHT22;14000;52.056;8.510;2023-05-18T03:57:26;3.40;99.90
26278;DHT22;14000;52.056;8.510;2023-05-18T03:59:52;3.40;99.90
26278;DHT22;14000;52.056;8.510;2023-05-18T04:02:18;3.40;99.90
26278;DHT22;14000;52.056;8.510;2023-05-18T04:04:43;3.30;99.90
26278;DHT22;14000;52.056;8.510;2023-05-18T04:07:13;3.30;99.90
26278;DHT22;14000;52.056;8.510;2023-05-18T04:09:41;3.30;99.90
26278;DHT22;14000;52.056;8.510;2023-05-18T04:12:07;3.40;99.90
26278;DHT22;14000;52.056;8.510;2023-05-18T04:14:33;3.40;99.90
26278;DHT22;14000;52.056;8.510;2023-05-18T04:16:59;3.40;99.90
26278;DHT22;14000;52.056;8.510;2023-05-18T04:19:36;3.40;99.90
26278;DHT22;14000;52.056;8.510;2023-05-18T04:22:02;3.40;99.90
26278;DHT22;14000;52.056;8.510;2023-05-18T04:24:32;3.40;99.90
26278;DHT22;14000;52.056;8.510;2023-05-18T04:26:59;3.40;99.90
26278;DHT22;14000;52.056;8.510;2023-05-18T04:29:28;3.40;99.90
26278;DHT22;14000;52.056;8.510;2023-05-18T04:31:55;3.50;99.90
26278;DHT22;14000;52.056;8.510;2023-05-18T04:34:28;3.50;99.90
26278;DHT22;14000;52.056;8.510;2023-05-18T04:36:54;3.50;99.90
26278;DHT22;14000;52.056;8.510;2023-05-18T04:39:20;3.50;99.90
26278;DHT22;14000;52.056;8.510;2023-05-18T04:41:48;3.60;99.90
26278;DHT22;14000;52.056;8.510;2023-05-18T04:44:14;3.60;99.90
26278;DHT22;14000;52.056;8.510;2023-05-18T04:46:40;3.70;99.90
26278;DHT22;14000;52.056;8.510;2023-05-18T04:49:05;3.70;99.90
26278;DHT22;14000;52.056;8.510;2023-05-18T04:51:31;3.80;99.90
26278;DHT22;14000;52.056;8.510;2023-05-18T04:54:00;3.90;99.90
26278;DHT22;14000;52.056;8.510;2023-05-18T04:56:27;4.00;99.90
26278;DHT22;14000;52.056;8.510;2023-05-18T04:58:53;4.00;99.90
26278;DHT22;14000;52.056;8.510;2023-05-18T05:01:23;4.10;99.90
26278;DHT22;14000;52.056;8.510;2023-05-18T05:03:49;4.20;99.90
26278;DHT22;14000;52.056;8.510;2023-05-18T05:06:15;4.20;99.90
26278;DHT22;14000;52.056;8.510;2023-05-18T05:08:41;4.30;99.90
26278;DHT22;14000;52.056;8.510;2023-05-18T05:11:06;4.30;99.90
26278;DHT22;14000;52.056;8.510;2023-05-18T05:13:32;4.40;99.90
26278;DHT22;14000;52.056;8.510;2023-05-18T05:16:00;4.50;99.90
26278;DHT22;14000;52.056;8.510;2023-05-18T05:18:26;4.60;99.90
26278;DHT22;14000;52.056;8.510;2023-05-18T05:20:52;4.70;99.90
26278;DHT22;14000;52.056;8.510;2023-05-18T05:23:18;4.80;99.90
26278;DHT22;14000;52.056;8.510;2023-05-18T05:25:44;5.00;99.90
26278;DHT22;14000;52.056;8.510;2023-05-18T05:28:10;5.00;99.90
26278;DHT22;14000;52.056;8.510;2023-05-18T05:30:35;5.10;99.90
26278;DHT22;14000;52.056;8.510;2023-05-18T05:33:01;5.30;99.90
26278;DHT22;14000;52.056;8.510;2023-05-18T05:35:26;5.40;99.90
26278;DHT22;14000;52.056;8.510;2023-05-18T05:37:52;5.40;99.90
26278;DHT22;14000;52.056;8.510;2023-05-18T05:40:18;5.50;99.90
26278;DHT22;14000;52.056;8.510;2023-05-18T05:42:43;5.60;99.90
26278;DHT22;14000;52.056;8.510;2023-05-18T05:45:09;5.70;99.90
26278;DHT22;14000;52.056;8.510;2023-05-18T05:47:35;5.80;99.90
26278;DHT22;14000;52.056;8.510;2023-05-18T05:50:00;5.90;99.90
26278;DHT22;14000;52.056;8.510;2023-05-18T05:52:26;6.00;99.90
26278;DHT22;14000;52.056;8.510;2023-05-18T05:54:55;6.10;99.90
26278;DHT22;14000;52.056;8.510;2023-05-18T05:57:20;6.30;99.90
26278;DHT22;14000;52.056;8.510;2023-05-18T05:59:46;6.40;99.90
26278;DHT22;14000;52.056;8.510;2023-05-18T06:02:11;6.50;99.90
26278;DHT22;14000;52.056;8.510;2023-05-18T06:04:37;6.60;99.90
26278;DHT22;14000;52.056;8.510;2023-05-18T06:07:03;6.70;99.90
26278;DHT22;14000;52.056;8.510;2023-05-18T06:09:29;6.80;99.90
26278;DHT22;14000;52.056;8.510;2023-05-18T06:11:54;6.90;99.90
26278;DHT22;14000;52.056;8.510;2023-05-18T06:14:20;7.10;99.90
26278;DHT22;14000;52.056;8.510;2023-05-18T06:16:46;7.20;99.90
26278;DHT22;14000;52.056;8.510;2023-05-18T06:19:12;7.30;99.90
26278;DHT22;14000;52.056;8.510;2023-05-18T06:21:37;7.40;99.90
26278;DHT22;14000;52.056;8.510;2023-05-18T06:24:03;7.40;99.90
26278;DHT22;14000;52.056;8.510;2023-05-18T06:26:29;7.50;99.90
26278;DHT22;14000;52.056;8.510;2023-05-18T06:28:55;7.60;99.90
26278;DHT22;14000;52.056;8.510;2023-05-18T06:31:21;7.60;99.90
26278;DHT22;14000;52.056;8.510;2023-05-18T06:33:47;7.60;99.90
26278;DHT22;14000;52.056;8.510;2023-05-18T06:36:14;7.70;99.90
26278;DHT22;14000;52.056;8.510;2023-05-18T06:38:40;7.80;99.90
26278;DHT22;14000;52.056;8.510;2023-05-18T06:41:05;7.90;99.90
26278;DHT22;14000;52.056;8.510;2023-05-18T06:43:31;7.90;99.90
26278;DHT22;14000;52.056;8.510;2023-05-18T06:45:56;8.00;99.90
26278;DHT22;14000;52.056;8.510;2023-05-18T06:48:25;8.00;99.90
26278;DHT22;14000;52.056;8.510;2023-05-18T06:50:51;8.00;99.90
26278;DHT22;14000;52.056;8.510;2023-05-18T06:53:16;8.10;99.90
26278;DHT22;14000;52.056;8.510;2023-05-18T06:55:42;8.10;99.90
26278;DHT22;14000;52.056;8.510;2023-05-18T06:58:08;8.20;99.90
26278;DHT22;14000;52.056;8.510;2023-05-18T07:00:33;8.30;99.90
26278;DHT22;14000;52.056;8.510;2023-05-18T07:02:59;8.30;99.90
26278;DHT22;14000;52.056;8.510;2023-05-18T07:05:26;8.40;99.90
26278;DHT22;14000;52.056;8.510;2023-05-18T07:07:51;8.50;99.90
26278;DHT22;14000;52.056;8.510;2023-05-18T07:10:17;8.60;99.90
26278;DHT22;14000;52.056;8.510;2023-05-18T07:12:43;8.60;99.90
26278;DHT22;14000;52.056;8.510;2023-05-18T07:15:08;8.60;99.90
26278;DHT22;14000;52.056;8.510;2023-05-18T07:17:36;8.70;99.90
26278;DHT22;14000;52.056;8.510;2023-05-18T07:20:02;8.80;99.90
26278;DHT22;14000;52.056;8.510;2023-05-18T07:22:30;8.80;99.90
26278;DHT22;14000;52.056;8.510;2023-05-18T07:24:55;9.00;99.90
26278;DHT22;14000;52.056;8.510;2023-05-18T07:27:23;8.90;99.90
26278;DHT22;14000;52.056;8.510;2023-05-18T07:29:48;8.90;99.90
26278;DHT22;14000;52.056;8.510;2023-05-18T07:32:14;9.10;99.90
26278;DHT22;14000;52.056;8.510;2023-05-18T07:34:40;9.00;99.90
26278;DHT22;14000;52.056;8.510;2023-05-18T07:37:08;9.10;99.90
26278;DHT22;14000;52.056;8.510;2023-05-18T07:39:34;9.10;99.90
26278;DHT22;14000;52.056;8.510;2023-05-18T07:42:00;9.20;99.90
26278;DHT22;14000;52.056;8.510;2023-05-18T07:44:25;9.30;99.90
26278;DHT22;14000;52.056;8.510;2023-05-18T07:46:51;9.40;99.90
26278;DHT22;14000;52.056;8.510;2023-05-18T07:49:16;9.40;99.90
26278;DHT22;14000;52.056;8.510;2023-05-18T07:51:42;9.40;99.90
26278;DHT22;14000;52.056;8.510;2023-05-18T07:54:08;9.50;99.90
26278;DHT22;14000;52.056;8.510;2023-05-18T07:56:33;9.50;99.90
26278;DHT22;14000;52.056;8.510;2023-05-18T07:58:59;9.60;99.90
26278;DHT22;14000;52.056;8.510;2023-05-18T08:01:24;9.70;99.90
26278;DHT22;14000;52.056;8.510;2023-05-18T08:03:52;9.70;99.90
26278;DHT22;14000;52.056;8.510;2023-05-18T08:06:19;9.90;99.90
26278;DHT22;14000;52.056;8.510;2023-05-18T08:08:45;10.00;99.90
26278;DHT22;14000;52.056;8.510;2023-05-18T08:11:11;10.00;99.90
26278;DHT22;14000;52.056;8.510;2023-05-18T08:13:37;10.10;99.90
26278;DHT22;14000;52.056;8.510;2023-05-18T08:16:02;10.10;99.90
26278;DHT22;14000;52.056;8.510;2023-05-18T08:18:28;10.10;99.90
26278;DHT22;14000;52.056;8.510;2023-05-18T08:20:53;10.10;99.90
26278;DHT22;14000;52.056;8.510;2023-05-18T08:23:20;10.30;99.90
26278;DHT22;14000;52.056;8.510;2023-05-18T08:25:45;10.30;99.90
26278;DHT22;14000;52.056;8.510;2023-05-18T08:28:11;10.30;99.90
26278;DHT22;14000;52.056;8.510;2023-05-18T08:30:36;10.20;99.90
26278;DHT22;14000;52.056;8.510;2023-05-18T08:33:02;10.20;99.90
26278;DHT22;14000;52.056;8.510;2023-05-18T08:35:28;10.20;99.90
26278;DHT22;14000;52.056;8.510;2023-05-18T08:37:54;10.20;99.90
26278;DHT22;14000;52.056;8.510;2023-05-18T08:40:20;10.20;99.90
26278;DHT22;14000;52.056;8.510;2023-05-18T08:43:06;10.20;99.90
26278;DHT22;14000;52.056;8.510;2023-05-18T08:45:40;10.30;99.90
26278;DHT22;14000;52.056;8.510;2023-05-18T08:48:10;10.40;99.90
26278;DHT22;14000;52.056;8.510;2023-05-18T08:50:37;10.40;99.90
26278;DHT22;14000;52.056;8.510;2023-05-18T08:53:05;10.40;99.90
26278;DHT22;14000;52.056;8.510;2023-05-18T08:55:31;10.40;99.90
26278;DHT22;14000;52.056;8.510;2023-05-18T08:58:02;10.40;99.90
26278;DHT22;14000;52.056;8.510;2023-05-18T09:00:28;10.40;99.90
26278;DHT22;14000;52.056;8.510;2023-05-18T09:02:55;10.50;99.90
26278;DHT22;14000;52.056;8.510;2023-05-18T09:05:22;10.60;99.90
26278;DHT22;14000;52.056;8.510;2023-05-18T09:07:49;10.60;99.90
26278;DHT22;14000;52.056;8.510;2023-05-18T09:10:16;10.60;99.90
26278;DHT22;14000;52.056;8.510;2023-05-18T09:12:43;10.70;99.90
26278;DHT22;14000;52.056;8.510;2023-05-18T09:15:12;10.90;99.90
26278;DHT22;14000;52.056;8.510;2023-05-18T09:17:38;11.00;99.90
26278;DHT22;14000;52.056;8.510;2023-05-18T09:20:05;11.00;99.90
26278;DHT22;14000;52.056;8.510;2023-05-18T09:22:32;11.00;99.90
26278;DHT22;14000;52.056;8.510;2023-05-18T09:25:01;11.00;99.90
26278;DHT22;14000;52.056;8.510;2023-05-18T09:27:27;11.10;99.90
26278;DHT22;14000;52.056;8.510;2023-05-18T09:29:54;11.10;99.90
26278;DHT22;14000;52.056;8.510;2023-05-18T09:32:21;11.20;99.90
26278;DHT22;14000;52.056;8.510;2023-05-18T09:34:46;11.20;99.90
26278;DHT22;14000;52.056;8.510;2023-05-18T09:37:17;11.30;99.90
26278;DHT22;14000;52.056;8.510;2023-05-18T09:39:43;11.40;99.90
26278;DHT22;14000;52.056;8.510;2023-05-18T09:42:09;11.50;99.90
26278;DHT22;14000;52.056;8.510;2023-05-18T09:44:35;11.70;99.90
26278;DHT22;14000;52.056;8.510;2023-05-18T09:47:01;11.70;99.90
26278;DHT22;14000;52.056;8.510;2023-05-18T09:49:31;11.70;99.90
26278;DHT22;14000;52.056;8.510;2023-05-18T09:51:57;11.70;99.90
26278;DHT22;14000;52.056;8.510;2023-05-18T09:54:25;11.80;99.90
26278;DHT22;14000;52.056;8.510;2023-05-18T09:56:51;11.90;99.90
26278;DHT22;14000;52.056;8.510;2023-05-18T09:59:17;11.90;99.90
26278;DHT22;14000;52.056;8.510;2023-05-18T10:01:55;12.00;99.90
26278;DHT22;14000;52.056;8.510;2023-05-18T10:04:21;12.20;99.90
26278;DHT22;14000;52.056;8.510;2023-05-18T10:06:49;12.30;99.90
26278;DHT22;14000;52.056;8.510;2023-05-18T10:09:15;12.40;99.90
26278;DHT22;14000;52.056;8.510;2023-05-18T10:11:42;12.50;99.90
26278;DHT22;14000;52.056;8.510;2023-05-18T10:14:11;12.50;99.90
26278;DHT22;14000;52.056;8.510;2023-05-18T10:16:36;12.60;99.90
26278;DHT22;14000;52.056;8.510;2023-05-18T10:19:05;12.60;99.90
26278;DHT22;14000;52.056;8.510;2023-05-18T10:21:33;12.50;99.90
26278;DHT22;14000;52.056;8.510;2023-05-18T10:24:02;12.40;99.90
26278;DHT22;14000;52.056;8.510;2023-05-18T10:26:34;12.50;99.90
26278;DHT22;14000;52.056;8.510;2023-05-18T10:29:03;12.50;99.90
26278;DHT22;14000;52.056;8.510;2023-05-18T10:31:29;12.50;99.90
26278;DHT22;14000;52.056;8.510;2023-05-18T10:33:56;12.50;99.90
26278;DHT22;14000;52.056;8.510;2023-05-18T10:36:24;12.60;99.90
26278;DHT22;14000;52.056;8.510;2023-05-18T10:38:56;12.90;99.90
26278;DHT22;14000;52.056;8.510;2023-05-18T10:41:23;12.90;99.90
26278;DHT22;14000;52.056;8.510;2023-05-18T10:43:51;13.00;99.90
26278;DHT22;14000;52.056;8.510;2023-05-18T10:46:18;13.00;99.90
26278;DHT22;14000;52.056;8.510;2023-05-18T10:48:46;12.80;99.90
26278;DHT22;14000;52.056;8.510;2023-05-18T10:51:14;13.00;99.90
26278;DHT22;14000;52.056;8.510;2023-05-18T10:53:40;13.10;99.90
26278;DHT22;14000;52.056;8.510;2023-05-18T10:56:08;13.20;99.90
26278;DHT22;14000;52.056;8.510;2023-05-18T10:58:35;13.20;99.90
26278;DHT22;14000;52.056;8.510;2023-05-18T11:01:05;13.40;99.90
26278;DHT22;14000;52.056;8.510;2023-05-18T11:03:31;13.80;99.90
26278;DHT22;14000;52.056;8.510;2023-05-18T11:08:33;15.90;99.90
26278;DHT22;14000;52.056;8.510;2023-05-18T11:11:08;16.90;99.90
26278;DHT22;14000;52.056;8.510;2023-05-18T11:13:34;18.50;99.90
26278;DHT22;14000;52.056;8.510;2023-05-18T11:16:03;19.40;99.90
26278;DHT22;14000;52.056;8.510;2023-05-18T11:18:39;19.30;99.90
26278;DHT22;14000;52.056;8.510;2023-05-18T11:24:30;20.90;99.90
26278;DHT22;14000;52.056;8.510;2023-05-18T11:27:15;21.30;99.90
26278;DHT22;14000;52.056;8.510;2023-05-18T11:29:42;22.00;99.90
26278;DHT22;14000;52.056;8.510;2023-05-18T11:32:23;22.70;99.90
26278;DHT22;14000;52.056;8.510;2023-05-18T11:34:50;23.10;99.90
26278;DHT22;14000;52.056;8.510;2023-05-18T11:40:02;23.90;99.90
26278;DHT22;14000;52.056;8.510;2023-05-18T11:42:32;24.10;99.90
26278;DHT22;14000;52.056;8.510;2023-05-18T11:45:05;23.60;99.90
26278;DHT22;14000;52.056;8.510;2023-05-18T11:47:31;23.20;99.90
26278;DHT22;14000;52.056;8.510;2023-05-18T11:49:57;23.10;99.90
26278;DHT22;14000;52.056;8.510;2023-05-18T11:52:24;22.60;99.90
26278;DHT22;14000;52.056;8.510;2023-05-18T11:54:52;22.30;99.90
26278;DHT22;14000;52.056;8.510;2023-05-18T11:57:21;22.00;99.90
26278;DHT22;14000;52.056;8.510;2023-05-18T11:59:53;21.10;99.90
26278;DHT22;14000;52.056;8.510;2023-05-18T12:02:23;20.90;99.90
26278;DHT22;14000;52.056;8.510;2023-05-18T12:04:52;20.60;99.90
26278;DHT22;14000;52.056;8.510;2023-05-18T12:07:19;20.60;99.90
26278;DHT22;14000;52.056;8.510;2023-05-18T12:09:46;20.00;99.90
26278;DHT22;14000;52.056;8.510;2023-05-18T12:12:13;19.40;99.90
26278;DHT22;14000;52.056;8.510;2023-05-18T12:14:42;18.60;99.90
26278;DHT22;14000;52.056;8.510;2023-05-18T12:17:09;18.20;99.90
26278;DHT22;14000;52.056;8.510;2023-05-18T12:19:47;17.60;99.90
26278;DHT22;14000;52.056;8.510;2023-05-18T12:22:12;17.70;99.90
26278;DHT22;14000;52.056;8.510;2023-05-18T12:24:39;17.80;99.90
26278;DHT22;14000;52.056;8.510;2023-05-18T12:27:07;17.80;99.90
26278;DHT22;14000;52.056;8.510;2023-05-18T12:29:36;17.80;99.90
26278;DHT22;14000;52.056;8.510;2023-05-18T12:32:07;18.10;99.90
26278;DHT22;14000;52.056;8.510;2023-05-18T12:34:34;18.00;99.90
26278;DHT22;14000;52.056;8.510;2023-05-18T12:36:59;17.70;99.90
26278;DHT22;14000;52.056;8.510;2023-05-18T12:39:25;17.90;99.90
26278;DHT22;14000;52.056;8.510;2023-05-18T12:41:51;18.10;99.90
26278;DHT22;14000;52.056;8.510;2023-05-18T12:44:17;18.00;99.90
26278;DHT22;14000;52.056;8.510;2023-05-18T12:46:43;17.90;99.90
26278;DHT22;14000;52.056;8.510;2023-05-18T12:49:08;18.10;99.90
26278;DHT22;14000;52.056;8.510;2023-05-18T12:51:36;18.10;99.90
26278;DHT22;14000;52.056;8.510;2023-05-18T12:54:02;17.70;99.90
26278;DHT22;14000;52.056;8.510;2023-05-18T12:59:19;17.60;99.90
26278;DHT22;14000;52.056;8.510;2023-05-18T13:01:46;17.70;99.90
26278;DHT22;14000;52.056;8.510;2023-05-18T13:04:12;17.60;99.90
26278;DHT22;14000;52.056;8.510;2023-05-18T13:06:38;17.70;99.90
26278;DHT22;14000;52.056;8.510;2023-05-18T13:09:22;17.80;99.90
26278;DHT22;14000;52.056;8.510;2023-05-18T13:11:49;18.00;99.90
26278;DHT22;14000;52.056;8.510;2023-05-18T13:14:20;18.20;99.90
26278;DHT22;14000;52.056;8.510;2023-05-18T13:16:49;18.30;99.90
26278;DHT22;14000;52.056;8.510;2023-05-18T13:19:16;18.30;99.90
26278;DHT22;14000;52.056;8.510;2023-05-18T13:21:43;18.40;99.90
26278;DHT22;14000;52.056;8.510;2023-05-18T13:24:08;18.40;99.90
26278;DHT22;14000;52.056;8.510;2023-05-18T13:26:34;18.20;99.90
26278;DHT22;14000;52.056;8.510;2023-05-18T13:29:00;18.30;99.90
26278;DHT22;14000;52.056;8.510;2023-05-18T13:31:26;18.40;99.90
26278;DHT22;14000;52.056;8.510;2023-05-18T13:33:54;18.40;99.90
26278;DHT22;14000;52.056;8.510;2023-05-18T13:36:19;18.40;99.90
26278;DHT22;14000;52.056;8.510;2023-05-18T13:38:45;18.50;99.90
26278;DHT22;14000;52.056;8.510;2023-05-18T13:41:12;18.20;99.90
26278;DHT22;14000;52.056;8.510;2023-05-18T13:43:39;18.20;99.90
26278;DHT22;14000;52.056;8.510;2023-05-18T13:46:05;17.90;99.90
26278;DHT22;14000;52.056;8.510;2023-05-18T13:48:31;18.00;99.90
26278;DHT22;14000;52.056;8.510;2023-05-18T13:50:57;18.10;99.90
26278;DHT22;14000;52.056;8.510;2023-05-18T13:53:22;18.00;99.90
26278;DHT22;14000;52.056;8.510;2023-05-18T13:55:48;18.20;99.90
26278;DHT22;14000;52.056;8.510;2023-05-18T13:58:14;18.40;99.90
26278;DHT22;14000;52.056;8.510;2023-05-18T14:00:40;18.40;99.90
26278;DHT22;14000;52.056;8.510;2023-05-18T14:03:06;18.50;99.90
26278;DHT22;14000;52.056;8.510;2023-05-18T14:05:32;18.50;99.90
26278;DHT22;14000;52.056;8.510;2023-05-18T14:07:58;18.40;99.90
26278;DHT22;14000;52.056;8.510;2023-05-18T14:10:23;18.10;99.90
26278;DHT22;14000;52.056;8.510;2023-05-18T14:12:49;18.30;99.90
26278;DHT22;14000;52.056;8.510;2023-05-18T14:15:15;18.30;99.90
26278;DHT22;14000;52.056;8.510;2023-05-18T14:17:41;18.40;99.90
26278;DHT22;14000;52.056;8.510;2023-05-18T14:20:07;18.40;99.90
26278;DHT22;14000;52.056;8.510;2023-05-18T14:22:33;18.20;99.90
26278;DHT22;14000;52.056;8.510;2023-05-18T14:24:59;18.10;99.90
26278;DHT22;14000;52.056;8.510;2023-05-18T14:27:25;18.10;99.90
26278;DHT22;14000;52.056;8.510;2023-05-18T14:29:51;18.20;99.90
26278;DHT22;14000;52.056;8.510;2023-05-18T14:32:17;18.10;99.90
26278;DHT22;14000;52.056;8.510;2023-05-18T14:34:45;18.00;99.90
26278;DHT22;14000;52.056;8.510;2023-05-18T14:37:11;17.90;99.90
26278;DHT22;14000;52.056;8.510;2023-05-18T14:39:37;18.00;99.90
26278;DHT22;14000;52.056;8.510;2023-05-18T14:42:04;18.20;99.90
26278;DHT22;14000;52.056;8.510;2023-05-18T14:44:29;18.50;99.90
26278;DHT22;14000;52.056;8.510;2023-05-18T14:46:55;18.60;99.90
26278;DHT22;14000;52.056;8.510;2023-05-18T14:49:21;18.80;99.90
26278;DHT22;14000;52.056;8.510;2023-05-18T14:51:47;18.70;99.90
26278;DHT22;14000;52.056;8.510;2023-05-18T14:54:12;18.60;99.90
26278;DHT22;14000;52.056;8.510;2023-05-18T14:56:38;18.10;99.90
26278;DHT22;14000;52.056;8.510;2023-05-18T14:59:04;17.60;99.90
26278;DHT22;14000;52.056;8.510;2023-05-18T15:01:29;17.30;99.90
26278;DHT22;14000;52.056;8.510;2023-05-18T15:03:55;17.20;99.90
26278;DHT22;14000;52.056;8.510;2023-05-18T15:06:21;17.10;99.90
26278;DHT22;14000;52.056;8.510;2023-05-18T15:08:48;17.00;99.90
26278;DHT22;14000;52.056;8.510;2023-05-18T15:11:14;16.90;99.90
26278;DHT22;14000;52.056;8.510;2023-05-18T15:13:40;16.80;99.90
26278;DHT22;14000;52.056;8.510;2023-05-18T15:16:06;16.60;99.90
26278;DHT22;14000;52.056;8.510;2023-05-18T15:18:32;16.50;99.90
26278;DHT22;14000;52.056;8.510;2023-05-18T15:20:58;16.40;99.90
26278;DHT22;14000;52.056;8.510;2023-05-18T15:23:23;16.30;99.90
26278;DHT22;14000;52.056;8.510;2023-05-18T15:25:50;16.40;99.90
26278;DHT22;14000;52.056;8.510;2023-05-18T15:28:16;16.40;99.90
26278;DHT22;14000;52.056;8.510;2023-05-18T15:30:42;16.40;99.90
26278;DHT22;14000;52.056;8.510;2023-05-18T15:33:07;16.40;99.90
26278;DHT22;14000;52.056;8.510;2023-05-18T15:35:33;16.50;99.90
26278;DHT22;14000;52.056;8.510;2023-05-18T15:38:01;16.40;99.90
26278;DHT22;14000;52.056;8.510;2023-05-18T15:40:26;16.30;99.90
26278;DHT22;14000;52.056;8.510;2023-05-18T15:42:52;16.30;99.90
26278;DHT22;14000;52.056;8.510;2023-05-18T15:45:18;16.20;99.90
26278;DHT22;14000;52.056;8.510;2023-05-18T15:47:43;16.10;99.90
26278;DHT22;14000;52.056;8.510;2023-05-18T15:50:09;16.10;99.90
26278;DHT22;14000;52.056;8.510;2023-05-18T15:52:35;16.10;99.90
26278;DHT22;14000;52.056;8.510;2023-05-18T15:55:00;16.10;99.90